createdAt,value
2016-12-18T10:28:12.820Z,1034.6
2016-12-18T10:28:43.379Z,1034.54
2016-12-18T10:29:13.949Z,1034.57
2016-12-18T10:29:44.602Z,1034.53
2016-12-18T10:30:15.184Z,1034.54
2016-12-18T10:30:45.732Z,1034.54
2016-12-18T10:31:16.298Z,1034.56
2016-12-18T10:31:46.876Z,1034.54
2016-12-18T10:32:17.429Z,1034.58
2016-12-18T10:32:48.002Z,1034.55
2016-12-18T10:33:18.567Z,1034.57
2016-12-18T10:33:49.142Z,1034.59
2016-12-18T10:34:19.759Z,1034.6
2016-12-18T10:34:50.319Z,1034.56
2016-12-18T10:35:20.953Z,1034.63
2016-12-18T10:35:51.543Z,1034.57
2016-12-18T10:36:22.098Z,1034.58
2016-12-18T10:36:52.687Z,1034.57
2016-12-18T10:37:23.261Z,1034.57
2016-12-18T10:37:53.839Z,1034.57
2016-12-18T10:38:24.428Z,1034.54
2016-12-18T10:38:55.003Z,1034.53
2016-12-18T10:39:25.565Z,1034.51
2016-12-18T10:39:56.160Z,1034.55
2016-12-18T10:40:26.737Z,1034.55
2016-12-18T10:40:57.328Z,1034.51
2016-12-18T10:41:27.900Z,1034.49
2016-12-18T10:41:58.448Z,1034.5
2016-12-18T10:42:29.014Z,1034.47
2016-12-18T10:42:59.630Z,1034.52
2016-12-18T10:43:30.195Z,1034.48
2016-12-18T10:44:00.770Z,1034.46
2016-12-18T10:44:31.324Z,1034.51
2016-12-18T10:45:01.945Z,1034.52
2016-12-18T10:45:32.504Z,1034.55
2016-12-18T10:46:03.066Z,1034.49
2016-12-18T10:46:33.634Z,1034.48
2016-12-18T10:47:04.201Z,1034.51
2016-12-18T10:47:34.795Z,1034.49
2016-12-18T10:48:05.390Z,1034.49
2016-12-18T10:48:36.036Z,1034.5
2016-12-18T10:49:06.625Z,1034.48
2016-12-18T10:49:37.213Z,1034.44
2016-12-18T10:50:07.794Z,1034.47
2016-12-18T10:50:38.349Z,1034.48
2016-12-18T10:51:08.917Z,1034.5
2016-12-18T10:51:39.499Z,1034.44
2016-12-18T10:52:10.074Z,1034.41
2016-12-18T10:52:40.692Z,1034.48
2016-12-18T10:53:11.266Z,1034.45
2016-12-18T10:53:41.834Z,1034.45
2016-12-18T10:54:12.413Z,1034.45
2016-12-18T10:54:42.985Z,1034.47
2016-12-18T10:55:13.551Z,1034.5
2016-12-18T10:55:44.195Z,1034.47
2016-12-18T10:56:14.778Z,1034.52
2016-12-18T10:56:45.347Z,1034.52
2016-12-18T10:57:15.955Z,1034.53
2016-12-18T10:57:46.543Z,1034.52
2016-12-18T10:58:17.131Z,1034.51
2016-12-18T10:58:47.716Z,1034.53
2016-12-18T10:59:18.288Z,1034.55
2016-12-18T10:59:48.854Z,1034.46
2016-12-18T11:00:19.422Z,1034.5
2016-12-18T11:00:49.985Z,1034.47
2016-12-18T11:01:20.582Z,1034.5
2016-12-18T11:01:51.170Z,1034.49
2016-12-18T11:02:21.745Z,1034.49
2016-12-18T11:02:52.299Z,1034.5
2016-12-18T11:03:22.970Z,1034.47
2016-12-18T11:03:53.526Z,1034.45
2016-12-18T11:04:24.096Z,1034.45
2016-12-18T11:04:54.668Z,1034.43
2016-12-18T11:05:25.241Z,1034.42
2016-12-18T11:05:55.785Z,1034.47
2016-12-18T11:06:26.355Z,1034.42
2016-12-18T11:06:56.913Z,1034.41
2016-12-18T11:07:27.484Z,1034.42
2016-12-18T11:07:58.039Z,1034.47
2016-12-18T11:08:28.629Z,1034.4
2016-12-18T11:17:58.034Z,1034.36
2016-12-18T11:18:28.630Z,1034.39
2016-12-18T11:18:59.184Z,1034.33
2016-12-18T11:19:29.706Z,1034.36
2016-12-18T11:20:00.676Z,1034.35
2016-12-18T11:20:30.955Z,1034.38
2016-12-18T11:21:01.498Z,1034.43
2016-12-18T11:21:32.070Z,1034.38
2016-12-18T11:22:02.630Z,1034.39
2016-12-18T11:22:33.189Z,1034.38
2016-12-18T11:23:03.752Z,1034.36
2016-12-18T11:23:34.320Z,1034.33
2016-12-18T11:24:04.928Z,1034.34
2016-12-18T11:24:35.513Z,1034.35
2016-12-18T11:25:06.069Z,1034.32
2016-12-18T11:25:36.677Z,1034.38
2016-12-18T11:26:07.220Z,1034.35
2016-12-18T11:26:37.802Z,1034.35
2016-12-18T11:27:08.387Z,1034.32
2016-12-18T11:27:39.007Z,1034.33
2016-12-18T11:28:09.583Z,1034.3
2016-12-18T11:28:40.185Z,1034.32
2016-12-18T11:29:10.752Z,1034.26
2016-12-18T11:29:41.315Z,1034.3
2016-12-18T11:30:11.879Z,1034.26
2016-12-18T11:30:42.447Z,1034.28
2016-12-18T11:31:13.062Z,1034.21
2016-12-18T11:31:43.653Z,1034.27
2016-12-18T11:32:14.218Z,1034.24
2016-12-18T11:32:44.803Z,1034.22
2016-12-18T11:33:15.448Z,1034.21
2016-12-18T11:33:46.014Z,1034.26
2016-12-18T11:34:16.605Z,1034.26
2016-12-18T11:34:47.159Z,1034.24
2016-12-18T11:35:17.746Z,1034.26
2016-12-18T11:35:48.327Z,1034.23
2016-12-18T11:36:18.898Z,1034.25
2016-12-18T11:36:49.467Z,1034.21
2016-12-18T11:37:20.040Z,1034.25
2016-12-18T11:37:50.632Z,1034.25
2016-12-18T11:38:21.202Z,1034.19
2016-12-18T11:38:51.819Z,1034.13
2016-12-18T11:39:22.405Z,1034.18
2016-12-18T11:39:52.970Z,1034.12
2016-12-18T11:40:23.531Z,1034.14
2016-12-18T11:40:54.087Z,1034.16
2016-12-18T11:41:24.660Z,1034.14
2016-12-18T11:41:55.221Z,1034.14
2016-12-18T11:42:25.825Z,1034.09
2016-12-18T11:42:56.409Z,1034.11
2016-12-18T11:43:27.029Z,1034.04
2016-12-18T11:43:57.615Z,1034.11
2016-12-18T11:44:28.181Z,1034.1
2016-12-18T11:44:58.756Z,1034.11
2016-12-18T11:45:29.364Z,1034.11
2016-12-18T11:45:59.936Z,1034.08
2016-12-18T11:46:30.497Z,1034.06
2016-12-18T11:47:01.097Z,1034.05
2016-12-18T11:47:31.667Z,1034
2016-12-18T11:48:02.253Z,1034.01
2016-12-18T11:48:32.846Z,1034.03
2016-12-18T11:49:03.434Z,1034
2016-12-18T11:49:34.012Z,1034
2016-12-18T11:50:04.589Z,1033.99
2016-12-18T11:50:35.153Z,1034.02
2016-12-18T11:51:05.746Z,1034.01
2016-12-18T11:51:36.319Z,1034.05
2016-12-18T11:52:06.897Z,1033.98
2016-12-18T11:52:37.481Z,1033.96
2016-12-18T11:53:08.037Z,1034.02
2016-12-18T11:53:38.639Z,1033.99
2016-12-18T11:54:09.194Z,1034.01
2016-12-18T11:54:39.796Z,1034.05
2016-12-18T11:55:10.372Z,1034.03
2016-12-18T11:55:40.932Z,1034.06
2016-12-18T11:56:11.518Z,1034.03
2016-12-18T11:56:42.093Z,1034.07
2016-12-18T11:57:12.702Z,1034.05
2016-12-18T11:57:43.272Z,1034.04
2016-12-18T11:58:13.899Z,1034
2016-12-18T11:58:44.469Z,1034.03
2016-12-18T11:59:15.035Z,1034.04
2016-12-18T11:59:45.608Z,1034.03
2016-12-18T12:00:16.167Z,1034.08
2016-12-18T12:00:46.721Z,1034.05
2016-12-18T12:01:17.319Z,1034.14
2016-12-18T12:01:47.900Z,1034.16
2016-12-18T12:02:18.467Z,1034.18
2016-12-18T12:02:49.034Z,1034.19
2016-12-18T12:03:19.590Z,1034.16
2016-12-18T12:03:50.147Z,1034.12
2016-12-18T12:04:20.751Z,1034.11
2016-12-18T12:04:51.337Z,1034.1
2016-12-18T12:05:21.972Z,1034.12
2016-12-18T12:05:52.571Z,1034.19
2016-12-18T12:06:23.152Z,1034.16
2016-12-18T12:06:53.735Z,1034.18
2016-12-18T12:07:24.342Z,1034.15
2016-12-18T12:07:54.946Z,1034.14
2016-12-18T12:08:25.527Z,1034.11
2016-12-18T12:08:56.106Z,1034.12
2016-12-18T12:09:26.669Z,1034.13
2016-12-18T12:09:57.246Z,1034.17
2016-12-18T12:10:27.808Z,1034.12
2016-12-18T12:10:58.385Z,1034.15
2016-12-18T12:11:28.953Z,1034.13
2016-12-18T12:11:59.537Z,1034.13
2016-12-18T12:12:30.138Z,1034.08
2016-12-18T12:13:00.709Z,1034.18
2016-12-18T12:13:31.300Z,1034.23
2016-12-18T12:14:01.832Z,1034.16
2016-12-18T12:14:32.408Z,1034.11
2016-12-18T12:15:02.998Z,1034.08
2016-12-18T12:15:33.558Z,1034.09
2016-12-18T12:16:04.139Z,1034.12
2016-12-18T12:16:34.726Z,1034.15
2016-12-18T12:17:05.292Z,1034.12
2016-12-18T12:17:35.854Z,1034.15
2016-12-18T12:18:06.448Z,1034.15
2016-12-18T12:18:37.037Z,1034.11
2016-12-18T12:19:07.587Z,1034.13
2016-12-18T12:19:38.153Z,1034.09
2016-12-18T12:20:08.738Z,1034.07
2016-12-18T12:20:39.314Z,1034.07
2016-12-18T12:21:09.909Z,1034.05
2016-12-18T12:21:40.501Z,1034.04
2016-12-18T12:22:11.088Z,1034.03
2016-12-18T12:22:41.677Z,1034.01
2016-12-18T12:23:12.295Z,1034.04
2016-12-18T12:23:42.852Z,1034.07
2016-12-18T12:24:13.451Z,1034.05
2016-12-18T12:24:44.042Z,1034.05
2016-12-18T12:25:14.624Z,1034.08
2016-12-18T12:25:45.219Z,1034.04
2016-12-18T12:26:15.802Z,1034.07
2016-12-18T12:26:46.368Z,1034.06
2016-12-18T12:27:16.934Z,1034.07
2016-12-18T12:27:47.502Z,1034.07
2016-12-18T12:28:18.106Z,1034.09
2016-12-18T12:28:48.691Z,1034.08
2016-12-18T12:29:19.277Z,1034.05
2016-12-18T12:29:49.834Z,1034.06
2016-12-18T12:30:20.415Z,1034.07
2016-12-18T12:30:51.002Z,1034.04
2016-12-18T12:31:21.579Z,1034.02
2016-12-18T12:31:52.166Z,1034.05
2016-12-18T12:32:22.751Z,1034
2016-12-18T12:32:53.407Z,1034.02
2016-12-18T12:33:23.990Z,1034.01
2016-12-18T12:33:54.543Z,1034.03
2016-12-18T12:34:25.148Z,1034.01
2016-12-18T12:34:55.726Z,1034.02
2016-12-18T12:35:26.454Z,1033.97
2016-12-18T12:35:57.023Z,1034.02
2016-12-18T12:36:27.633Z,1033.99
2016-12-18T12:36:58.362Z,1033.98
2016-12-18T12:37:28.895Z,1033.96
2016-12-18T12:37:59.453Z,1033.99
2016-12-18T12:38:30.022Z,1033.99
2016-12-18T12:39:00.608Z,1034
2016-12-18T12:39:31.292Z,1034
2016-12-18T12:40:01.863Z,1034.01
2016-12-18T12:40:32.444Z,1033.98
2016-12-18T12:41:03.013Z,1033.96
2016-12-18T12:41:33.600Z,1033.96
2016-12-18T12:42:04.164Z,1033.96
2016-12-18T13:02:20.369Z,1033.59
2016-12-18T13:02:50.930Z,1033.62
2016-12-18T13:03:21.495Z,1033.62
2016-12-18T13:03:52.070Z,1033.55
2016-12-18T13:04:22.629Z,1033.56
2016-12-18T13:04:53.193Z,1033.59
2016-12-18T13:05:23.757Z,1033.56
2016-12-18T13:05:54.330Z,1033.54
2016-12-18T13:06:24.922Z,1033.53
2016-12-18T13:06:55.486Z,1033.54
2016-12-18T13:07:26.102Z,1033.52
2016-12-18T13:07:56.700Z,1033.53
2016-12-18T13:08:27.287Z,1033.52
2016-12-18T13:08:57.852Z,1033.5
2016-12-18T13:09:28.423Z,1033.48
2016-12-18T13:09:59.004Z,1033.47
2016-12-18T13:10:29.597Z,1033.51
2016-12-18T13:11:00.199Z,1033.49
2016-12-18T13:11:30.743Z,1033.47
2016-12-18T13:12:01.307Z,1033.52
2016-12-18T13:12:32.433Z,1033.5
2016-12-18T13:13:02.999Z,1033.49
2016-12-18T13:13:33.586Z,1033.48
2016-12-18T13:14:04.165Z,1033.46
2016-12-18T13:14:34.743Z,1033.4
2016-12-18T13:15:05.351Z,1033.46
2016-12-18T13:15:35.920Z,1033.43
2016-12-18T13:16:06.506Z,1033.39
2016-12-18T13:16:37.096Z,1033.37
2016-12-18T13:17:07.665Z,1033.32
2016-12-18T13:17:38.278Z,1033.31
2016-12-18T13:18:08.852Z,1033.33
2016-12-18T13:18:39.427Z,1033.33
2016-12-18T13:19:09.985Z,1033.38
2016-12-18T13:19:40.571Z,1033.37
2016-12-18T13:20:11.150Z,1033.39
2016-12-18T13:20:41.758Z,1033.34
2016-12-18T13:21:12.404Z,1033.33
2016-12-18T13:21:42.994Z,1033.36
2016-12-18T13:22:13.564Z,1033.32
2016-12-18T13:22:44.121Z,1033.34
2016-12-18T13:23:14.674Z,1033.35
2016-12-18T13:23:45.267Z,1033.32
2016-12-18T13:24:15.839Z,1033.33
2016-12-18T13:24:46.469Z,1033.31
2016-12-18T13:25:17.134Z,1033.27
2016-12-18T13:25:47.705Z,1033.33
2016-12-18T13:26:18.291Z,1033.26
2016-12-18T13:26:48.869Z,1033.25
2016-12-18T13:27:19.449Z,1033.25
2016-12-18T13:27:50.092Z,1033.21
2016-12-18T13:28:20.684Z,1033.21
2016-12-18T13:28:51.253Z,1033.25
2016-12-18T13:29:21.828Z,1033.28
2016-12-18T14:22:35.508Z,1033.1
2016-12-18T14:23:06.137Z,1033.12
2016-12-18T14:23:36.695Z,1033.16
2016-12-18T14:24:07.312Z,1033.13
2016-12-18T14:24:37.887Z,1033.12
2016-12-18T14:25:08.457Z,1033.14
2016-12-18T14:25:39.055Z,1033.12
2016-12-18T14:26:09.623Z,1033.09
2016-12-18T14:26:40.195Z,1033.07
2016-12-18T14:27:10.785Z,1033.09
2016-12-18T14:27:41.389Z,1033.11
2016-12-18T14:28:11.956Z,1033.09
2016-12-18T14:28:42.603Z,1033.09
2016-12-18T14:29:13.183Z,1033.08
2016-12-18T14:29:43.774Z,1033.11
2016-12-18T14:30:14.364Z,1033.09
2016-12-18T14:30:44.945Z,1033.12
2016-12-18T14:31:15.541Z,1033.15
2016-12-18T14:31:46.145Z,1033.12
2016-12-18T14:32:16.738Z,1033.1
2016-12-18T14:32:47.297Z,1033.12
2016-12-18T14:33:17.863Z,1033.13
2016-12-18T14:33:48.671Z,1033.11
2016-12-18T14:34:19.240Z,1033.14
2016-12-18T14:34:49.803Z,1033.12
2016-12-18T14:35:20.472Z,1033.13
2016-12-18T14:35:51.045Z,1033.16
2016-12-18T14:36:21.636Z,1033.15
2016-12-18T14:36:52.207Z,1033.15
2016-12-18T14:37:22.773Z,1033.17
2016-12-18T14:37:53.380Z,1033.14
2016-12-18T14:38:23.935Z,1033.15
2016-12-18T14:38:54.543Z,1033.12
2016-12-18T14:39:25.112Z,1033.19
2016-12-18T14:39:55.693Z,1033.22
2016-12-18T14:40:26.286Z,1033.21
2016-12-18T14:40:56.873Z,1033.21
2016-12-18T14:41:27.430Z,1033.22
2016-12-18T14:41:57.989Z,1033.23
2016-12-18T14:42:28.571Z,1033.23
2016-12-18T14:42:59.175Z,1033.25
2016-12-18T14:43:29.766Z,1033.24
2016-12-18T14:44:00.328Z,1033.25
2016-12-18T14:44:30.930Z,1033.24
2016-12-18T14:45:01.504Z,1033.3
2016-12-18T14:45:32.053Z,1033.24
2016-12-18T14:46:02.627Z,1033.28
2016-12-18T14:46:33.199Z,1033.21
2016-12-18T14:47:03.776Z,1033.25
2016-12-18T14:47:34.396Z,1033.27
2016-12-18T14:48:04.975Z,1033.25
2016-12-18T14:48:35.576Z,1033.23
2016-12-18T14:49:06.145Z,1033.26
2016-12-18T14:49:36.724Z,1033.24
2016-12-18T14:50:07.321Z,1033.24
2016-12-18T14:50:37.889Z,1033.22
2016-12-18T14:51:08.506Z,1033.29
2016-12-18T14:51:39.084Z,1033.26
2016-12-18T14:52:09.677Z,1033.24
2016-12-18T14:52:40.277Z,1033.24
2016-12-18T14:53:10.860Z,1033.24
2016-12-18T14:53:41.459Z,1033.25
2016-12-18T14:54:12.035Z,1033.25
2016-12-18T14:54:42.594Z,1033.28
2016-12-18T14:55:13.166Z,1033.26
2016-12-18T14:55:43.763Z,1033.22
2016-12-18T14:56:14.303Z,1033.23
2016-12-18T14:56:44.886Z,1033.22
2016-12-18T14:57:15.473Z,1033.26
2016-12-18T14:57:46.048Z,1033.23
2016-12-18T14:58:16.624Z,1033.27
2016-12-18T14:58:47.188Z,1033.24
2016-12-18T14:59:17.763Z,1033.22
2016-12-18T14:59:48.315Z,1033.24
2016-12-18T15:00:18.887Z,1033.22
2016-12-18T15:00:49.454Z,1033.24
2016-12-18T15:01:20.059Z,1033.22
2016-12-18T15:01:50.645Z,1033.22
2016-12-18T15:02:21.221Z,1033.19
2016-12-18T15:02:51.766Z,1033.22
2016-12-18T15:03:22.324Z,1033.18
2016-12-18T15:03:52.931Z,1033.16
2016-12-18T15:04:23.505Z,1033.18
2016-12-18T15:04:54.059Z,1033.13
2016-12-18T15:05:24.643Z,1033.15
2016-12-18T15:05:55.281Z,1033.13
2016-12-18T15:06:25.877Z,1033.16
2016-12-18T15:06:56.479Z,1033.18
2016-12-18T15:07:27.052Z,1033.16
2016-12-18T15:07:57.627Z,1033.13
2016-12-18T15:08:28.207Z,1033.14
2016-12-18T15:08:58.761Z,1033.17
2016-12-18T15:09:29.379Z,1033.16
2016-12-18T15:09:59.945Z,1033.15
2016-12-18T15:10:30.517Z,1033.18
2016-12-18T15:11:01.089Z,1033.18
2016-12-18T15:11:31.647Z,1033.13
2016-12-18T15:12:02.242Z,1033.16
2016-12-18T15:12:32.819Z,1033.08
2016-12-18T15:13:03.412Z,1033.13
2016-12-18T15:13:33.996Z,1033.11
2016-12-18T15:14:04.556Z,1033.13
2016-12-18T15:14:35.136Z,1033.12
2016-12-18T15:15:05.764Z,1033.16
2016-12-18T15:15:36.337Z,1033.11
2016-12-18T15:16:06.891Z,1033.18
2016-12-18T15:16:37.454Z,1033.19
2016-12-18T15:17:08.052Z,1033.19
2016-12-18T15:17:38.631Z,1033.19
2016-12-18T15:18:09.224Z,1033.18
2016-12-18T15:18:39.800Z,1033.18
2016-12-18T15:19:10.370Z,1033.23
2016-12-18T15:19:40.921Z,1033.22
2016-12-18T15:20:11.495Z,1033.23
2016-12-18T15:20:42.096Z,1033.26
2016-12-18T15:21:12.656Z,1033.27
2016-12-18T15:21:43.227Z,1033.32
2016-12-18T15:22:13.797Z,1033.32
2016-12-18T15:22:44.423Z,1033.3
2016-12-18T15:23:14.995Z,1033.3
2016-12-18T15:23:45.564Z,1033.35
2016-12-18T15:24:16.169Z,1033.32
2016-12-18T15:24:46.744Z,1033.36
2016-12-18T15:25:17.374Z,1033.32
2016-12-18T15:26:24.512Z,1033.31
2016-12-18T15:26:55.115Z,1033.4
2016-12-18T15:27:25.686Z,1033.39
2016-12-18T15:27:56.384Z,1033.38
2016-12-18T15:28:27.046Z,1033.45
2016-12-18T15:28:57.632Z,1033.39
2016-12-18T15:29:28.215Z,1033.43
2016-12-18T15:29:58.786Z,1033.46
2016-12-18T15:30:29.408Z,1033.46
2016-12-18T15:30:59.988Z,1033.44
2016-12-18T15:31:30.553Z,1033.44
2016-12-18T15:32:01.123Z,1033.43
2016-12-18T15:32:31.707Z,1033.41
2016-12-18T15:33:02.312Z,1033.44
2016-12-18T15:33:32.869Z,1033.43
2016-12-18T15:34:03.475Z,1033.45
2016-12-18T15:34:34.038Z,1033.4
2016-12-18T15:35:04.644Z,1033.45
2016-12-18T15:35:35.254Z,1033.41
2016-12-18T15:36:05.818Z,1033.4
2016-12-18T15:36:36.418Z,1033.42
2016-12-18T15:37:06.995Z,1033.41
2016-12-18T15:37:37.550Z,1033.4
2016-12-18T15:38:08.119Z,1033.42
2016-12-18T15:38:38.723Z,1033.41
2016-12-18T15:39:09.288Z,1033.44
2016-12-18T15:39:39.872Z,1033.41
2016-12-18T15:40:10.456Z,1033.39
2016-12-18T15:40:41.062Z,1033.42
2016-12-18T15:41:11.649Z,1033.41
2016-12-18T15:41:42.218Z,1033.41
2016-12-18T15:42:12.820Z,1033.37
2016-12-18T15:42:43.395Z,1033.32
2016-12-18T15:43:13.966Z,1033.33
2016-12-18T15:43:44.562Z,1033.31
2016-12-18T15:44:15.133Z,1033.28
2016-12-18T15:44:45.711Z,1033.28
2016-12-18T15:45:16.269Z,1033.29
2016-12-18T15:45:46.849Z,1033.29
2016-12-18T15:46:17.393Z,1033.26
2016-12-18T15:46:47.958Z,1033.27
2016-12-18T15:47:18.535Z,1033.27
2016-12-18T15:47:49.136Z,1033.24
2016-12-18T15:48:19.721Z,1033.24
2016-12-18T15:48:50.347Z,1033.27
2016-12-18T15:49:20.901Z,1033.3
2016-12-18T15:49:51.475Z,1033.26
2016-12-18T15:50:22.043Z,1033.2
2016-12-18T15:50:52.614Z,1033.23
2016-12-18T15:51:23.224Z,1033.23
2016-12-18T15:51:53.808Z,1033.22
2016-12-18T15:52:24.373Z,1033.21
2016-12-18T15:52:54.944Z,1033.23
2016-12-18T15:53:25.527Z,1033.26
2016-12-18T15:53:56.094Z,1033.23
2016-12-18T15:54:26.675Z,1033.24
2016-12-18T15:54:57.310Z,1033.23
2016-12-18T15:55:27.854Z,1033.25
2016-12-18T15:55:58.410Z,1033.21
2016-12-18T15:56:28.953Z,1033.24
2016-12-18T15:56:59.544Z,1033.22
2016-12-18T15:57:30.114Z,1033.26
2016-12-18T15:58:00.723Z,1033.27
2016-12-18T15:58:31.288Z,1033.25
2016-12-18T15:59:01.884Z,1033.25
2016-12-18T15:59:32.449Z,1033.29
2016-12-18T16:00:03.051Z,1033.24
2016-12-18T16:00:33.641Z,1033.21
2016-12-18T16:01:04.251Z,1033.26
2016-12-18T16:01:34.856Z,1033.25
2016-12-18T16:02:05.454Z,1033.21
2016-12-18T16:02:36.036Z,1033.26
2016-12-18T16:03:06.589Z,1033.23
2016-12-18T16:03:37.181Z,1033.23
2016-12-18T16:04:07.749Z,1033.29
2016-12-18T16:04:38.323Z,1033.3
2016-12-18T16:05:08.901Z,1033.29
2016-12-18T16:05:39.483Z,1033.26
2016-12-18T16:06:10.027Z,1033.26
2016-12-18T16:06:40.596Z,1033.24
2016-12-18T16:07:11.186Z,1033.24
2016-12-18T16:07:41.765Z,1033.23
2016-12-18T16:08:12.346Z,1033.26
2016-12-18T16:08:42.914Z,1033.27
2016-12-18T16:09:13.486Z,1033.26
2016-12-18T16:09:44.064Z,1033.27
2016-12-18T16:10:14.645Z,1033.26
2016-12-18T16:10:45.237Z,1033.28
2016-12-18T16:11:15.807Z,1033.26
2016-12-18T16:11:46.388Z,1033.24
2016-12-18T16:12:17.077Z,1033.25
2016-12-18T16:12:47.665Z,1033.26
2016-12-18T16:13:18.273Z,1033.27
2016-12-18T16:13:48.837Z,1033.27
2016-12-18T16:14:19.415Z,1033.25
2016-12-18T16:14:49.975Z,1033.21
2016-12-18T16:15:20.548Z,1033.2
2016-12-18T16:15:51.127Z,1033.23
2016-12-18T16:16:21.695Z,1033.23
2016-12-18T16:16:52.274Z,1033.23
2016-12-18T16:17:22.846Z,1033.2
2016-12-18T16:17:53.431Z,1033.2
2016-12-18T16:18:24.004Z,1033.22
2016-12-18T16:18:54.560Z,1033.23
2016-12-18T16:19:25.153Z,1033.2
2016-12-18T16:19:55.742Z,1033.25
2016-12-18T16:20:26.304Z,1033.19
2016-12-18T16:20:56.881Z,1033.21
2016-12-18T16:21:27.468Z,1033.21
2016-12-18T16:21:58.034Z,1033.2
2016-12-18T16:22:28.615Z,1033.26
2016-12-18T16:22:59.205Z,1033.2
2016-12-18T16:23:29.824Z,1033.18
2016-12-18T16:24:00.399Z,1033.22
2016-12-18T16:24:30.996Z,1033.16
2016-12-18T16:25:01.562Z,1033.15
2016-12-18T16:25:32.157Z,1033.11
2016-12-18T16:26:02.767Z,1033.16
2016-12-18T16:26:33.330Z,1033.11
2016-12-18T16:27:03.899Z,1033.1
2016-12-18T16:27:34.470Z,1033.11
2016-12-18T16:28:05.037Z,1033.12
2016-12-18T16:28:35.605Z,1033.09
2016-12-18T16:29:06.196Z,1033.05
2016-12-18T16:29:36.756Z,1033.06
2016-12-18T16:30:07.316Z,1033.05
2016-12-18T16:30:37.888Z,1033.05
2016-12-18T16:31:08.534Z,1033.03
2016-12-18T16:31:39.080Z,1033.05
2016-12-18T16:32:09.681Z,1033.05
2016-12-18T16:32:40.235Z,1033.06
2016-12-18T16:33:10.803Z,1033.06
2016-12-18T16:33:41.434Z,1033.1
2016-12-18T16:34:12.004Z,1033.08
2016-12-18T16:34:42.581Z,1033.07
2016-12-18T16:35:13.182Z,1033.07
2016-12-18T16:35:43.764Z,1033.11
2016-12-18T16:36:14.343Z,1033.11
2016-12-18T16:36:44.908Z,1033.1
2016-12-18T16:37:15.455Z,1033.06
2016-12-18T16:37:46.034Z,1033.1
2016-12-18T16:38:16.583Z,1033.08
2016-12-18T16:38:47.211Z,1033.09
2016-12-18T16:39:17.778Z,1033.12
2016-12-18T16:39:48.356Z,1033.1
2016-12-18T16:40:18.916Z,1033.11
2016-12-18T16:40:49.488Z,1033.1
2016-12-18T16:41:20.051Z,1033.05
2016-12-18T16:41:50.648Z,1033.13
2016-12-18T16:42:21.234Z,1033.08
2016-12-18T16:42:51.815Z,1033.07
2016-12-18T16:43:22.426Z,1033.09
2016-12-18T16:43:53.002Z,1033.14
2016-12-18T16:44:23.577Z,1033.08
2016-12-18T16:44:54.146Z,1033.11
2016-12-18T16:45:24.703Z,1033.14
2016-12-18T16:45:55.298Z,1033.09
2016-12-18T16:46:25.832Z,1033.09
2016-12-18T16:46:56.514Z,1033.1
2016-12-18T16:47:27.079Z,1033.16
2016-12-18T16:47:57.657Z,1033.17
2016-12-18T16:48:28.235Z,1033.15
2016-12-18T16:48:58.801Z,1033.18
2016-12-18T16:49:29.361Z,1033.19
2016-12-18T16:49:59.934Z,1033.18
2016-12-18T16:50:30.513Z,1033.24
2016-12-18T16:51:01.102Z,1033.23
2016-12-18T16:51:31.667Z,1033.25
2016-12-18T16:52:02.281Z,1033.26
2016-12-18T16:52:32.886Z,1033.29
2016-12-18T16:53:03.478Z,1033.28
2016-12-18T16:53:34.082Z,1033.23
2016-12-18T16:54:04.669Z,1033.23
2016-12-18T16:54:35.255Z,1033.22
2016-12-18T16:55:05.827Z,1033.24
2016-12-18T16:55:36.413Z,1033.22
2016-12-18T16:56:06.976Z,1033.22
2016-12-18T16:56:37.552Z,1033.19
2016-12-18T16:57:08.146Z,1033.24
2016-12-18T16:57:38.712Z,1033.26
2016-12-18T16:58:09.291Z,1033.24
2016-12-18T16:58:39.851Z,1033.26
2016-12-18T16:59:10.417Z,1033.26
2016-12-18T16:59:41.027Z,1033.23
2016-12-18T17:00:12.315Z,1033.3
2016-12-18T17:00:42.935Z,1033.23
2016-12-18T17:01:13.519Z,1033.23
2016-12-18T17:01:44.089Z,1033.24
2016-12-18T17:02:14.665Z,1033.25
2016-12-18T17:02:45.274Z,1033.28
2016-12-18T17:03:15.837Z,1033.25
2016-12-18T17:03:46.419Z,1033.25
2016-12-18T17:04:17.017Z,1033.23
2016-12-18T17:04:47.596Z,1033.22
2016-12-18T17:05:18.175Z,1033.28
2016-12-18T17:05:48.777Z,1033.27
2016-12-18T17:06:19.338Z,1033.22
2016-12-18T17:06:49.938Z,1033.21
2016-12-18T17:07:20.536Z,1033.2
2016-12-18T17:07:51.114Z,1033.21
2016-12-18T17:08:21.683Z,1033.2
2016-12-18T17:08:52.427Z,1033.21
2016-12-18T17:09:23.016Z,1033.18
2016-12-18T17:09:53.623Z,1033.18
2016-12-18T17:10:24.216Z,1033.18
2016-12-18T17:10:54.826Z,1033.19
2016-12-18T17:11:25.470Z,1033.17
2016-12-18T17:11:56.057Z,1033.16
2016-12-18T17:12:26.645Z,1033.2
2016-12-18T17:12:57.258Z,1033.2
2016-12-18T17:13:27.863Z,1033.19
2016-12-18T17:13:58.438Z,1033.18
2016-12-18T17:14:29.028Z,1033.17
2016-12-18T17:14:59.616Z,1033.19
2016-12-18T17:15:30.241Z,1033.16
2016-12-18T17:16:00.836Z,1033.16
2016-12-18T17:16:31.419Z,1033.12
2016-12-18T17:17:02.000Z,1033.15
2016-12-18T17:17:32.610Z,1033.21
2016-12-18T17:18:03.233Z,1033.15
2016-12-18T17:18:33.914Z,1033.16
2016-12-18T17:19:04.535Z,1033.16
2016-12-18T17:19:35.121Z,1033.16
2016-12-18T17:20:05.684Z,1033.15
2016-12-18T17:20:36.264Z,1033.17
2016-12-18T17:21:06.826Z,1033.16
2016-12-18T17:21:37.466Z,1033.18
2016-12-18T17:22:08.048Z,1033.19
2016-12-18T17:22:38.639Z,1033.22
2016-12-18T17:23:09.239Z,1033.23
2016-12-18T17:23:39.860Z,1033.24
2016-12-18T17:24:10.421Z,1033.23
2016-12-18T17:24:40.993Z,1033.24
2016-12-18T17:25:11.585Z,1033.18
2016-12-18T17:25:42.184Z,1033.15
2016-12-18T17:26:12.783Z,1033.19
2016-12-18T17:26:43.368Z,1033.15
2016-12-18T17:27:13.946Z,1033.13
2016-12-18T17:27:44.529Z,1033.19
2016-12-18T17:28:15.103Z,1033.23
2016-12-18T17:28:45.693Z,1033.22
2016-12-18T17:29:16.287Z,1033.19
2016-12-18T17:29:46.845Z,1033.23
2016-12-18T17:30:17.434Z,1033.2
2016-12-18T17:30:48.038Z,1033.19
2016-12-18T17:31:18.613Z,1033.16
2016-12-18T17:31:49.191Z,1033.16
2016-12-18T17:32:19.771Z,1033.16
2016-12-18T17:32:50.363Z,1033.16
2016-12-18T17:33:20.932Z,1033.16
2016-12-18T17:33:51.497Z,1033.14
2016-12-18T17:34:22.076Z,1033.19
2016-12-18T17:34:52.631Z,1033.16
2016-12-18T17:35:23.249Z,1033.16
2016-12-18T17:35:53.817Z,1033.14
2016-12-18T17:36:24.403Z,1033.15
2016-12-18T17:36:54.952Z,1033.14
2016-12-18T17:37:25.512Z,1033.12
2016-12-18T17:37:56.104Z,1033.13
2016-12-18T17:38:26.666Z,1033.1
2016-12-18T17:38:57.246Z,1033.11
2016-12-18T17:39:27.827Z,1033.11
2016-12-18T17:39:58.404Z,1033.08
2016-12-18T17:40:29.052Z,1033.06
2016-12-18T17:40:59.611Z,1033.08
2016-12-18T17:41:30.223Z,1033.09
2016-12-18T17:42:00.787Z,1033.09
2016-12-18T17:42:31.350Z,1033.1
2016-12-18T17:43:01.926Z,1033.11
2016-12-18T17:43:32.490Z,1033.1
2016-12-18T17:44:03.091Z,1033.11
2016-12-18T17:44:33.654Z,1033.12
2016-12-18T17:45:04.237Z,1033.08
2016-12-18T17:45:34.803Z,1033.1
2016-12-18T17:46:05.457Z,1033.09
2016-12-18T17:46:36.053Z,1033.14
2016-12-18T17:47:06.638Z,1033.13
2016-12-18T17:47:37.275Z,1033.14
2016-12-18T17:48:07.879Z,1033.12
2016-12-18T17:48:38.459Z,1033.12
2016-12-18T17:49:09.041Z,1033.11
2016-12-18T17:49:39.704Z,1033.03
2016-12-18T17:50:10.312Z,1033.1
2016-12-18T17:50:40.897Z,1033.07
2016-12-18T17:51:11.491Z,1033.07
2016-12-18T17:51:42.156Z,1033.08
2016-12-18T17:52:12.767Z,1033.06
2016-12-18T17:52:43.368Z,1033.14
2016-12-18T17:53:13.943Z,1033.08
2016-12-18T17:53:44.520Z,1033.06
2016-12-18T17:54:15.081Z,1033.14
2016-12-18T17:54:45.679Z,1033.1
2016-12-18T17:55:16.266Z,1033.05
2016-12-18T17:55:46.840Z,1033.12
2016-12-18T17:56:17.406Z,1033.09
2016-12-18T17:56:47.979Z,1033.07
2016-12-18T17:57:18.607Z,1033.06
2016-12-18T17:57:49.204Z,1033.09
2016-12-18T17:58:19.799Z,1033.05
2016-12-18T17:58:50.360Z,1033.06
2016-12-18T17:59:20.962Z,1033.08
2016-12-18T17:59:51.523Z,1033.04
2016-12-18T18:00:22.102Z,1033.04
2016-12-18T18:00:52.701Z,1033.06
2016-12-18T18:01:23.280Z,1033.01